sensor_id;sensor_type;location;lat;lon;timestamp;pressure;altitude;pressure_sealevel;temperature;humidity
20930;BME280;21895;47.072;15.132;2024-03-23T00:55:43;96282.00;;;8.19;71.52
20930;BME280;21895;47.072;15.132;2024-03-23T00:58:10;96287.00;;;7.94;71.66
20930;BME280;21895;47.072;15.132;2024-03-23T01:00:36;96278.00;;;7.70;72.28
20930;BME280;21895;47.072;15.132;2024-03-23T01:03:04;96274.00;;;7.73;73.17
20930;BME280;21895;47.072;15.132;2024-03-23T01:05:30;96284.00;;;7.59;73.75
20930;BME280;21895;47.072;15.132;2024-03-23T01:07:57;96269.00;;;7.60;73.34
20930;BME280;21895;47.072;15.132;2024-03-23T01:10:23;96266.00;;;7.61;73.70
20930;BME280;21895;47.072;15.132;2024-03-23T01:12:50;96267.00;;;7.63;73.81
20930;BME280;21895;47.072;15.132;2024-03-23T01:15:16;96262.00;;;7.47;73.74
20930;BME280;21895;47.072;15.132;2024-03-23T01:17:43;96259.00;;;7.40;74.22
20930;BME280;21895;47.072;15.132;2024-03-23T01:20:10;96253.00;;;7.45;74.46
20930;BME280;21895;47.072;15.132;2024-03-23T01:22:36;96251.00;;;7.51;74.64
20930;BME280;21895;47.072;15.132;2024-03-23T01:25:03;96240.00;;;7.48;74.13
20930;BME280;21895;47.072;15.132;2024-03-23T01:27:30;96243.00;;;7.36;74.24
20930;BME280;21895;47.072;15.132;2024-03-23T01:29:56;96244.00;;;7.32;74.18
20930;BME280;21895;47.072;15.132;2024-03-23T01:32:23;96242.00;;;7.31;74.37
20930;BME280;21895;47.072;15.132;2024-03-23T01:34:50;96241.00;;;7.25;74.87
20930;BME280;21895;47.072;15.132;2024-03-23T01:37:16;96234.00;;;7.31;75.34
20930;BME280;21895;47.072;15.132;2024-03-23T01:39:43;96244.00;;;7.42;75.44
20930;BME280;21895;47.072;15.132;2024-03-23T01:42:09;96229.00;;;7.52;74.14
20930;BME280;21895;47.072;15.132;2024-03-23T01:44:36;96233.00;;;7.48;74.18
20930;BME280;21895;47.072;15.132;2024-03-23T01:47:03;96226.00;;;7.41;74.01
20930;BME280;21895;47.072;15.132;2024-03-23T01:49:29;96231.00;;;7.49;74.42
20930;BME280;21895;47.072;15.132;2024-03-23T01:51:56;96224.00;;;7.46;74.19
20930;BME280;21895;47.072;15.132;2024-03-23T01:54:24;96222.00;;;7.44;74.01
20930;BME280;21895;47.072;15.132;2024-03-23T01:56:50;96220.00;;;7.44;74.54
20930;BME280;21895;47.072;15.132;2024-03-23T01:59:17;96211.00;;;7.36;74.84
20930;BME280;21895;47.072;15.132;2024-03-23T02:01:44;96206.00;;;7.37;75.04
20930;BME280;21895;47.072;15.132;2024-03-23T02:04:13;96205.00;;;7.45;74.85
20930;BME280;21895;47.072;15.132;2024-03-23T02:06:40;96206.00;;;7.48;74.96
20930;BME280;21895;47.072;15.132;2024-03-23T02:09:06;96200.00;;;7.51;75.00
20930;BME280;21895;47.072;15.132;2024-03-23T02:11:33;96196.00;;;7.35;75.09
20930;BME280;21895;47.072;15.132;2024-03-23T02:14:00;96191.00;;;7.29;75.66
20930;BME280;21895;47.072;15.132;2024-03-23T02:16:26;96182.00;;;7.45;75.24
20930;BME280;21895;47.072;15.132;2024-03-23T02:18:53;96177.00;;;7.37;75.07
20930;BME280;21895;47.072;15.132;2024-03-23T02:21:19;96172.00;;;7.34;75.67
20930;BME280;21895;47.072;15.132;2024-03-23T02:23:46;96168.00;;;7.38;74.98
20930;BME280;21895;47.072;15.132;2024-03-23T02:26:12;96178.00;;;7.19;75.05
20930;BME280;21895;47.072;15.132;2024-03-23T02:28:40;96171.00;;;6.88;76.36
20930;BME280;21895;47.072;15.132;2024-03-23T02:31:06;96167.00;;;6.95;76.13
20930;BME280;21895;47.072;15.132;2024-03-23T02:33:33;96168.00;;;7.04;76.22
20930;BME280;21895;47.072;15.132;2024-03-23T02:36:01;96161.00;;;6.96;76.29
20930;BME280;21895;47.072;15.132;2024-03-23T02:38:27;96163.00;;;7.05;76.23
20930;BME280;21895;47.072;15.132;2024-03-23T02:40:54;96159.00;;;7.04;76.08
20930;BME280;21895;47.072;15.132;2024-03-23T02:43:20;96154.00;;;7.02;75.42
20930;BME280;21895;47.072;15.132;2024-03-23T02:45:47;96154.00;;;6.82;74.71
20930;BME280;21895;47.072;15.132;2024-03-23T02:48:13;96147.00;;;6.66;75.65
20930;BME280;21895;47.072;15.132;2024-03-23T02:50:40;96152.00;;;6.58;75.56
20930;BME280;21895;47.072;15.132;2024-03-23T02:53:06;96156.00;;;6.40;75.37
20930;BME280;21895;47.072;15.132;2024-03-23T02:55:33;96151.00;;;6.18;75.25
20930;BME280;21895;47.072;15.132;2024-03-23T02:58:00;96149.00;;;6.16;76.23
20930;BME280;21895;47.072;15.132;2024-03-23T03:00:28;96143.00;;;6.32;75.94
20930;BME280;21895;47.072;15.132;2024-03-23T03:02:55;96142.00;;;6.30;75.19
20930;BME280;21895;47.072;15.132;2024-03-23T03:05:22;96139.00;;;6.09;76.06
20930;BME280;21895;47.072;15.132;2024-03-23T03:07:48;96135.00;;;6.04;75.91
20930;BME280;21895;47.072;15.132;2024-03-23T03:10:18;96135.00;;;6.08;76.12
20930;BME280;21895;47.072;15.132;2024-03-23T03:12:44;96137.00;;;5.95;76.17
20930;BME280;21895;47.072;15.132;2024-03-23T03:15:12;96148.00;;;6.12;75.95
20930;BME280;21895;47.072;15.132;2024-03-23T03:17:39;96141.00;;;6.24;74.50
20930;BME280;21895;47.072;15.132;2024-03-23T03:20:06;96135.00;;;6.07;75.06
20930;BME280;21895;47.072;15.132;2024-03-23T03:22:33;96137.00;;;5.88;76.32
20930;BME280;21895;47.072;15.132;2024-03-23T03:24:59;96136.00;;;5.84;76.42
20930;BME280;21895;47.072;15.132;2024-03-23T03:27:26;96132.00;;;5.80;77.78
20930;BME280;21895;47.072;15.132;2024-03-23T03:29:53;96126.00;;;5.94;77.60
20930;BME280;21895;47.072;15.132;2024-03-23T03:32:20;96122.00;;;5.90;76.73
20930;BME280;21895;47.072;15.132;2024-03-23T03:34:46;96117.00;;;5.87;76.16
20930;BME280;21895;47.072;15.132;2024-03-23T03:37:13;96115.00;;;6.03;77.82
20930;BME280;21895;47.072;15.132;2024-03-23T03:39:39;96109.00;;;6.14;77.35
20930;BME280;21895;47.072;15.132;2024-03-23T03:42:06;96109.00;;;6.12;77.35
20930;BME280;21895;47.072;15.132;2024-03-23T03:44:33;96104.00;;;6.17;76.39
20930;BME280;21895;47.072;15.132;2024-03-23T03:47:03;96102.00;;;6.15;77.03
20930;BME280;21895;47.072;15.132;2024-03-23T03:49:29;96101.00;;;6.27;77.57
20930;BME280;21895;47.072;15.132;2024-03-23T03:51:56;96104.00;;;6.27;78.15
20930;BME280;21895;47.072;15.132;2024-03-23T03:54:22;96105.00;;;6.25;77.67
20930;BME280;21895;47.072;15.132;2024-03-23T03:56:49;96102.00;;;6.46;77.08
20930;BME280;21895;47.072;15.132;2024-03-23T03:59:18;96099.00;;;6.34;77.57
20930;BME280;21895;47.072;15.132;2024-03-23T04:01:46;96101.00;;;6.45;77.55
20930;BME280;21895;47.072;15.132;2024-03-23T04:04:13;96098.00;;;6.29;77.52
20930;BME280;21895;47.072;15.132;2024-03-23T04:06:40;96097.00;;;6.30;78.15
20930;BME280;21895;47.072;15.132;2024-03-23T04:09:06;96096.00;;;6.26;78.14
20930;BME280;21895;47.072;15.132;2024-03-23T04:11:33;96093.00;;;6.12;77.28
20930;BME280;21895;47.072;15.132;2024-03-23T04:13:59;96088.00;;;6.17;77.50
20930;BME280;21895;47.072;15.132;2024-03-23T04:16:33;96083.00;;;6.26;77.77
20930;BME280;21895;47.072;15.132;2024-03-23T04:19:00;96079.00;;;6.33;77.28
20930;BME280;21895;47.072;15.132;2024-03-23T04:21:27;96075.00;;;6.26;78.00
20930;BME280;21895;47.072;15.132;2024-03-23T04:23:54;96068.00;;;6.43;77.63
20930;BME280;21895;47.072;15.132;2024-03-23T04:26:20;96070.00;;;6.39;78.02
20930;BME280;21895;47.072;15.132;2024-03-23T04:28:47;96072.00;;;6.27;78.69
20930;BME280;21895;47.072;15.132;2024-03-23T04:31:13;96066.00;;;6.45;78.31
20930;BME280;21895;47.072;15.132;2024-03-23T04:33:40;96060.00;;;6.63;78.62
20930;BME280;21895;47.072;15.132;2024-03-23T04:36:06;96061.00;;;6.94;78.13
20930;BME280;21895;47.072;15.132;2024-03-23T04:38:33;96060.00;;;7.05;77.13
20930;BME280;21895;47.072;15.132;2024-03-23T04:41:00;96053.00;;;7.06;76.87
20930;BME280;21895;47.072;15.132;2024-03-23T04:43:28;96057.00;;;6.98;77.50
20930;BME280;21895;47.072;15.132;2024-03-23T04:45:55;96047.00;;;7.01;77.28
20930;BME280;21895;47.072;15.132;2024-03-23T04:48:23;96051.00;;;7.06;77.41
20930;BME280;21895;47.072;15.132;2024-03-23T04:50:51;96048.00;;;7.18;76.76
20930;BME280;21895;47.072;15.132;2024-03-23T04:53:20;96046.00;;;7.24;76.53
20930;BME280;21895;47.072;15.132;2024-03-23T04:55:47;96042.00;;;7.25;76.63
20930;BME280;21895;47.072;15.132;2024-03-23T04:58:13;96035.00;;;7.33;76.12
20930;BME280;21895;47.072;15.132;2024-03-23T05:00:40;96035.00;;;7.24;76.52
20930;BME280;21895;47.072;15.132;2024-03-23T05:03:06;96040.00;;;7.27;76.50
20930;BME280;21895;47.072;15.132;2024-03-23T05:05:33;96045.00;;;7.25;76.81
20930;BME280;21895;47.072;15.132;2024-03-23T05:07:59;96042.00;;;7.30;76.87
20930;BME280;21895;47.072;15.132;2024-03-23T05:10:26;96046.00;;;7.34;76.57
20930;BME280;21895;47.072;15.132;2024-03-23T05:12:52;96036.00;;;7.47;76.37
20930;BME280;21895;47.072;15.132;2024-03-23T05:15:19;96038.00;;;7.54;76.76
20930;BME280;21895;47.072;15.132;2024-03-23T05:17:45;96031.00;;;7.59;76.10
20930;BME280;21895;47.072;15.132;2024-03-23T05:20:12;96033.00;;;7.38;76.73
20930;BME280;21895;47.072;15.132;2024-03-23T05:22:40;96042.00;;;7.40;76.63
20930;BME280;21895;47.072;15.132;2024-03-23T05:25:07;96037.00;;;7.44;76.47
20930;BME280;21895;47.072;15.132;2024-03-23T05:27:33;96031.00;;;7.43;76.66
20930;BME280;21895;47.072;15.132;2024-03-23T05:30:00;96037.00;;;7.59;76.67
20930;BME280;21895;47.072;15.132;2024-03-23T05:32:27;96028.00;;;7.68;76.54
20930;BME280;21895;47.072;15.132;2024-03-23T05:34:54;96025.00;;;7.73;76.43
20930;BME280;21895;47.072;15.132;2024-03-23T05:37:23;96027.00;;;7.56;77.69
20930;BME280;21895;47.072;15.132;2024-03-23T05:39:50;96016.00;;;7.74;76.70
20930;BME280;21895;47.072;15.132;2024-03-23T05:42:17;96012.00;;;7.73;76.90
20930;BME280;21895;47.072;15.132;2024-03-23T05:44:47;96009.00;;;7.95;76.23
20930;BME280;21895;47.072;15.132;2024-03-23T05:47:13;96008.00;;;8.11;75.55
20930;BME280;21895;47.072;15.132;2024-03-23T05:49:43;96013.00;;;8.21;75.07
20930;BME280;21895;47.072;15.132;2024-03-23T05:52:10;96004.00;;;8.22;75.49
20930;BME280;21895;47.072;15.132;2024-03-23T05:54:37;96005.00;;;8.42;75.17
20930;BME280;21895;47.072;15.132;2024-03-23T05:57:04;96009.00;;;8.32;75.73
20930;BME280;21895;47.072;15.132;2024-03-23T05:59:30;96005.00;;;8.39;75.69
20930;BME280;21895;47.072;15.132;2024-03-23T06:01:57;96014.00;;;8.63;74.77
20930;BME280;21895;47.072;15.132;2024-03-23T06:04:24;96002.00;;;8.64;74.11
20930;BME280;21895;47.072;15.132;2024-03-23T06:06:52;95996.00;;;8.66;74.24
20930;BME280;21895;47.072;15.132;2024-03-23T06:09:19;96001.00;;;8.80;73.93
20930;BME280;21895;47.072;15.132;2024-03-23T06:11:46;95992.00;;;8.76;75.02
20930;BME280;21895;47.072;15.132;2024-03-23T06:14:12;95992.00;;;8.95;74.57
20930;BME280;21895;47.072;15.132;2024-03-23T06:16:39;95994.00;;;8.86;74.03
20930;BME280;21895;47.072;15.132;2024-03-23T06:19:05;95990.00;;;9.10;72.66
20930;BME280;21895;47.072;15.132;2024-03-23T06:21:33;95987.00;;;8.95;73.09
20930;BME280;21895;47.072;15.132;2024-03-23T06:24:00;95992.00;;;8.91;73.10
20930;BME280;21895;47.072;15.132;2024-03-23T06:26:26;95989.00;;;8.98;73.24
20930;BME280;21895;47.072;15.132;2024-03-23T06:28:53;95993.00;;;9.07;72.50
20930;BME280;21895;47.072;15.132;2024-03-23T06:31:20;95989.00;;;9.11;72.53
20930;BME280;21895;47.072;15.132;2024-03-23T06:33:46;95984.00;;;9.20;72.19
20930;BME280;21895;47.072;15.132;2024-03-23T06:36:13;95980.00;;;9.22;71.95
20930;BME280;21895;47.072;15.132;2024-03-23T06:38:41;95976.00;;;9.30;70.61
20930;BME280;21895;47.072;15.132;2024-03-23T06:41:09;95980.00;;;9.39;71.09
20930;BME280;21895;47.072;15.132;2024-03-23T06:43:36;95978.00;;;9.62;70.29
20930;BME280;21895;47.072;15.132;2024-03-23T06:46:03;95979.00;;;9.60;71.15
20930;BME280;21895;47.072;15.132;2024-03-23T06:48:30;95984.00;;;9.67;70.15
20930;BME280;21895;47.072;15.132;2024-03-23T06:50:57;95980.00;;;9.64;70.06
20930;BME280;21895;47.072;15.132;2024-03-23T06:53:24;95981.00;;;9.72;70.54
20930;BME280;21895;47.072;15.132;2024-03-23T06:55:53;95988.00;;;9.75;71.12
20930;BME280;21895;47.072;15.132;2024-03-23T06:58:24;95983.00;;;9.87;71.11
20930;BME280;21895;47.072;15.132;2024-03-23T07:00:51;95986.00;;;9.82;72.05
20930;BME280;21895;47.072;15.132;2024-03-23T07:03:18;95989.00;;;9.85;71.69
20930;BME280;21895;47.072;15.132;2024-03-23T07:05:44;95990.00;;;9.84;71.33
20930;BME280;21895;47.072;15.132;2024-03-23T07:08:12;95986.00;;;9.93;71.08
20930;BME280;21895;47.072;15.132;2024-03-23T07:10:42;95991.00;;;10.22;68.79
20930;BME280;21895;47.072;15.132;2024-03-23T07:13:08;95988.00;;;10.27;68.59
20930;BME280;21895;47.072;15.132;2024-03-23T07:15:38;95983.00;;;10.25;68.08
20930;BME280;21895;47.072;15.132;2024-03-23T07:18:05;95983.00;;;10.39;68.50
20930;BME280;21895;47.072;15.132;2024-03-23T07:20:31;95987.00;;;10.53;68.68
20930;BME280;21895;47.072;15.132;2024-03-23T07:22:58;95982.00;;;10.64;67.50
20930;BME280;21895;47.072;15.132;2024-03-23T07:25:25;95978.00;;;10.78;66.78
20930;BME280;21895;47.072;15.132;2024-03-23T07:27:56;95972.00;;;10.97;66.80
20930;BME280;21895;47.072;15.132;2024-03-23T07:30:22;95971.00;;;11.24;66.29
20930;BME280;21895;47.072;15.132;2024-03-23T07:32:49;95961.00;;;11.36;64.57
20930;BME280;21895;47.072;15.132;2024-03-23T07:35:16;95967.00;;;11.57;64.74
20930;BME280;21895;47.072;15.132;2024-03-23T07:37:43;95965.00;;;11.61;65.45
20930;BME280;21895;47.072;15.132;2024-03-23T07:40:13;95964.00;;;11.77;65.76
20930;BME280;21895;47.072;15.132;2024-03-23T07:42:43;95958.00;;;11.97;64.77
20930;BME280;21895;47.072;15.132;2024-03-23T07:45:09;95958.00;;;11.87;64.94
20930;BME280;21895;47.072;15.132;2024-03-23T07:47:36;95961.00;;;11.97;64.59
20930;BME280;21895;47.072;15.132;2024-03-23T07:50:03;95958.00;;;12.22;63.81
20930;BME280;21895;47.072;15.132;2024-03-23T07:52:30;95947.00;;;12.27;63.60
20930;BME280;21895;47.072;15.132;2024-03-23T07:54:57;95935.00;;;12.53;62.31
20930;BME280;21895;47.072;15.132;2024-03-23T07:57:23;95943.00;;;12.55;62.07
20930;BME280;21895;47.072;15.132;2024-03-23T07:59:50;95947.00;;;12.64;62.92
20930;BME280;21895;47.072;15.132;2024-03-23T08:02:17;95948.00;;;12.79;62.55
20930;BME280;21895;47.072;15.132;2024-03-23T08:04:44;95938.00;;;12.96;61.27
20930;BME280;21895;47.072;15.132;2024-03-23T08:07:10;95931.00;;;13.02;61.18
20930;BME280;21895;47.072;15.132;2024-03-23T08:09:37;95928.00;;;13.32;59.44
20930;BME280;21895;47.072;15.132;2024-03-23T08:12:04;95930.00;;;13.62;58.74
20930;BME280;21895;47.072;15.132;2024-03-23T08:14:31;95921.00;;;14.23;58.71
20930;BME280;21895;47.072;15.132;2024-03-23T08:16:57;95917.00;;;14.53;56.97
20930;BME280;21895;47.072;15.132;2024-03-23T08:19:24;95917.00;;;15.31;56.15
20930;BME280;21895;47.072;15.132;2024-03-23T08:21:51;95914.00;;;15.65;54.71
20930;BME280;21895;47.072;15.132;2024-03-23T08:24:17;95899.00;;;15.93;52.79
20930;BME280;21895;47.072;15.132;2024-03-23T08:26:45;95895.00;;;16.41;52.46
20930;BME280;21895;47.072;15.132;2024-03-23T08:29:12;95888.00;;;16.65;50.91
20930;BME280;21895;47.072;15.132;2024-03-23T08:31:38;95876.00;;;17.00;50.31
20930;BME280;21895;47.072;15.132;2024-03-23T08:34:05;95866.00;;;17.49;48.16
20930;BME280;21895;47.072;15.132;2024-03-23T08:36:32;95865.00;;;17.53;48.68
20930;BME280;21895;47.072;15.132;2024-03-23T08:38:58;95864.00;;;17.61;47.87
20930;BME280;21895;47.072;15.132;2024-03-23T08:41:26;95858.00;;;17.85;48.32
20930;BME280;21895;47.072;15.132;2024-03-23T08:43:52;95862.00;;;17.91;46.80
20930;BME280;21895;47.072;15.132;2024-03-23T08:46:19;95845.00;;;18.09;46.57
20930;BME280;21895;47.072;15.132;2024-03-23T08:48:46;95850.00;;;18.11;47.11
20930;BME280;21895;47.072;15.132;2024-03-23T08:51:16;95843.00;;;18.24;48.15
20930;BME280;21895;47.072;15.132;2024-03-23T08:53:43;95844.00;;;18.26;48.91
20930;BME280;21895;47.072;15.132;2024-03-23T08:56:11;95840.00;;;18.34;48.89
20930;BME280;21895;47.072;15.132;2024-03-23T08:58:38;95828.00;;;18.33;48.20
20930;BME280;21895;47.072;15.132;2024-03-23T09:01:12;95821.00;;;18.30;49.19
20930;BME280;21895;47.072;15.132;2024-03-23T09:03:40;95819.00;;;18.12;49.59
20930;BME280;21895;47.072;15.132;2024-03-23T09:06:12;95821.00;;;18.09;49.51
20930;BME280;21895;47.072;15.132;2024-03-23T09:08:39;95811.00;;;17.90;49.25
20930;BME280;21895;47.072;15.132;2024-03-23T09:11:13;95807.00;;;17.91;49.70
20930;BME280;21895;47.072;15.132;2024-03-23T09:13:40;95801.00;;;17.55;50.08
20930;BME280;21895;47.072;15.132;2024-03-23T09:16:08;95794.00;;;17.48;49.92
20930;BME280;21895;47.072;15.132;2024-03-23T09:18:36;95796.00;;;17.40;50.23
20930;BME280;21895;47.072;15.132;2024-03-23T09:21:04;95792.00;;;17.53;49.88
20930;BME280;21895;47.072;15.132;2024-03-23T09:23:37;95788.00;;;17.65;49.19
20930;BME280;21895;47.072;15.132;2024-03-23T09:26:04;95794.00;;;17.79;49.35
20930;BME280;21895;47.072;15.132;2024-03-23T09:28:31;95784.00;;;18.00;49.22
20930;BME280;21895;47.072;15.132;2024-03-23T09:31:08;95778.00;;;18.58;48.76
20930;BME280;21895;47.072;15.132;2024-03-23T09:33:36;95771.00;;;19.15;47.36
20930;BME280;21895;47.072;15.132;2024-03-23T09:36:06;95761.00;;;19.38;45.06
20930;BME280;21895;47.072;15.132;2024-03-23T09:38:34;95760.00;;;19.69;44.35
20930;BME280;21895;47.072;15.132;2024-03-23T09:41:06;95757.00;;;19.93;43.97
20930;BME280;21895;47.072;15.132;2024-03-23T09:43:33;95751.00;;;20.29;42.82
20930;BME280;21895;47.072;15.132;2024-03-23T09:46:01;95745.00;;;20.46;39.71
20930;BME280;21895;47.072;15.132;2024-03-23T09:48:29;95741.00;;;20.95;40.91
20930;BME280;21895;47.072;15.132;2024-03-23T09:50:56;95739.00;;;21.17;40.79
20930;BME280;21895;47.072;15.132;2024-03-23T09:53:23;95736.00;;;21.62;39.48
20930;BME280;21895;47.072;15.132;2024-03-23T09:55:49;95728.00;;;21.81;38.69
20930;BME280;21895;47.072;15.132;2024-03-23T09:58:17;95722.00;;;21.66;38.86
20930;BME280;21895;47.072;15.132;2024-03-23T10:00:44;95717.00;;;21.83;38.81
20930;BME280;21895;47.072;15.132;2024-03-23T10:03:11;95717.00;;;21.95;37.40
20930;BME280;21895;47.072;15.132;2024-03-23T10:05:38;95717.00;;;22.05;38.05
20930;BME280;21895;47.072;15.132;2024-03-23T10:08:29;95707.00;;;22.02;37.35
20930;BME280;21895;47.072;15.132;2024-03-23T10:10:55;95700.00;;;21.89;36.65
20930;BME280;21895;47.072;15.132;2024-03-23T10:13:26;95703.00;;;21.87;35.34
20930;BME280;21895;47.072;15.132;2024-03-23T10:15:59;95701.00;;;21.57;36.52
20930;BME280;21895;47.072;15.132;2024-03-23T10:18:26;95702.00;;;21.42;37.31
20930;BME280;21895;47.072;15.132;2024-03-23T10:21:10;95701.00;;;21.13;37.49
20930;BME280;21895;47.072;15.132;2024-03-23T10:23:41;95693.00;;;21.41;36.75
20930;BME280;21895;47.072;15.132;2024-03-23T10:26:41;95692.00;;;21.35;38.27
20930;BME280;21895;47.072;15.132;2024-03-23T10:29:08;95685.00;;;21.34;36.77
20930;BME280;21895;47.072;15.132;2024-03-23T10:31:36;95679.00;;;21.27;36.37
20930;BME280;21895;47.072;15.132;2024-03-23T10:34:04;95676.00;;;21.22;37.18
20930;BME280;21895;47.072;15.132;2024-03-23T10:36:31;95671.00;;;21.29;37.11
20930;BME280;21895;47.072;15.132;2024-03-23T10:38:59;95668.00;;;21.20;37.39
20930;BME280;21895;47.072;15.132;2024-03-23T10:41:31;95667.00;;;21.35;35.94
20930;BME280;21895;47.072;15.132;2024-03-23T10:43:58;95661.00;;;21.50;37.81
20930;BME280;21895;47.072;15.132;2024-03-23T10:46:28;95665.00;;;21.48;37.94
20930;BME280;21895;47.072;15.132;2024-03-23T10:48:54;95662.00;;;21.73;35.83
20930;BME280;21895;47.072;15.132;2024-03-23T10:51:21;95662.00;;;21.72;35.47
20930;BME280;21895;47.072;15.132;2024-03-23T10:53:48;95648.00;;;21.64;35.13
20930;BME280;21895;47.072;15.132;2024-03-23T10:56:16;95636.00;;;21.59;34.11
20930;BME280;21895;47.072;15.132;2024-03-23T10:58:48;95629.00;;;21.47;34.94
20930;BME280;21895;47.072;15.132;2024-03-23T11:01:16;95617.00;;;21.55;36.18
20930;BME280;21895;47.072;15.132;2024-03-23T11:03:46;95622.00;;;21.44;34.91
20930;BME280;21895;47.072;15.132;2024-03-23T11:06:38;95621.00;;;21.04;37.15
20930;BME280;21895;47.072;15.132;2024-03-23T11:09:48;95610.00;;;21.00;36.21
20930;BME280;21895;47.072;15.132;2024-03-23T11:12:28;95594.00;;;20.64;35.83
20930;BME280;21895;47.072;15.132;2024-03-23T11:15:11;95596.00;;;20.50;37.77
20930;BME280;21895;47.072;15.132;2024-03-23T11:17:38;95584.00;;;20.64;37.16
20930;BME280;21895;47.072;15.132;2024-03-23T11:20:06;95583.00;;;20.69;37.36
20930;BME280;21895;47.072;15.132;2024-03-23T11:22:45;95575.00;;;20.80;37.14
20930;BME280;21895;47.072;15.132;2024-03-23T11:25:23;95561.00;;;20.83;37.06
20930;BME280;21895;47.072;15.132;2024-03-23T11:27:55;95558.00;;;20.63;37.17
20930;BME280;21895;47.072;15.132;2024-03-23T11:30:28;95548.00;;;20.55;37.31
20930;BME280;21895;47.072;15.132;2024-03-23T11:32:57;95540.00;;;20.69;36.04
20930;BME280;21895;47.072;15.132;2024-03-23T11:35:38;95536.00;;;20.53;37.05
20930;BME280;21895;47.072;15.132;2024-03-23T11:38:14;95536.00;;;20.53;35.71
20930;BME280;21895;47.072;15.132;2024-03-23T11:40:49;95519.00;;;20.63;36.28
20930;BME280;21895;47.072;15.132;2024-03-23T11:43:20;95519.00;;;20.73;35.46
20930;BME280;21895;47.072;15.132;2024-03-23T11:45:52;95508.00;;;20.47;36.36
20930;BME280;21895;47.072;15.132;2024-03-23T11:48:21;95507.00;;;20.65;36.12
20930;BME280;21895;47.072;15.132;2024-03-23T11:50:54;95501.00;;;20.73;36.04
20930;BME280;21895;47.072;15.132;2024-03-23T11:53:23;95498.00;;;20.87;34.73
20930;BME280;21895;47.072;15.132;2024-03-23T11:55:59;95499.00;;;20.60;35.07
20930;BME280;21895;47.072;15.132;2024-03-23T11:58:27;95490.00;;;20.81;35.58
20930;BME280;21895;47.072;15.132;2024-03-23T12:01:00;95480.00;;;20.90;35.06
20930;BME280;21895;47.072;15.132;2024-03-23T12:03:29;95460.00;;;21.17;34.88
20930;BME280;21895;47.072;15.132;2024-03-23T12:06:00;95463.00;;;21.31;34.21
20930;BME280;21895;47.072;15.132;2024-03-23T12:08:35;95454.00;;;21.34;35.22
20930;BME280;21895;47.072;15.132;2024-03-23T12:11:16;95459.00;;;21.21;34.60
20930;BME280;21895;47.072;15.132;2024-03-23T12:13:45;95458.00;;;21.07;34.46
20930;BME280;21895;47.072;15.132;2024-03-23T12:16:21;95455.00;;;20.95;35.27
20930;BME280;21895;47.072;15.132;2024-03-23T12:18:51;95450.00;;;21.18;35.04
20930;BME280;21895;47.072;15.132;2024-03-23T12:21:17;95451.00;;;21.13;34.50
20930;BME280;21895;47.072;15.132;2024-03-23T12:23:44;95462.00;;;20.80;35.99
20930;BME280;21895;47.072;15.132;2024-03-23T12:26:13;95444.00;;;20.58;36.53
20930;BME280;21895;47.072;15.132;2024-03-23T12:28:40;95450.00;;;20.65;36.07
20930;BME280;21895;47.072;15.132;2024-03-23T12:31:06;95443.00;;;20.66;37.19
20930;BME280;21895;47.072;15.132;2024-03-23T12:33:33;95441.00;;;20.96;36.64
20930;BME280;21895;47.072;15.132;2024-03-23T12:35:59;95436.00;;;20.73;37.34
20930;BME280;21895;47.072;15.132;2024-03-23T12:38:26;95441.00;;;21.07;36.84
20930;BME280;21895;47.072;15.132;2024-03-23T12:40:53;95447.00;;;20.47;37.24
20930;BME280;21895;47.072;15.132;2024-03-23T12:43:19;95441.00;;;20.63;37.06
20930;BME280;21895;47.072;15.132;2024-03-23T12:45:49;95436.00;;;20.72;37.82
20930;BME280;21895;47.072;15.132;2024-03-23T12:48:16;95439.00;;;20.46;37.75
20930;BME280;21895;47.072;15.132;2024-03-23T12:50:43;95428.00;;;20.78;38.06
20930;BME280;21895;47.072;15.132;2024-03-23T12:53:10;95433.00;;;21.10;36.71
20930;BME280;21895;47.072;15.132;2024-03-23T12:55:37;95423.00;;;21.19;36.10
20930;BME280;21895;47.072;15.132;2024-03-23T12:58:04;95409.00;;;21.56;36.40
20930;BME280;21895;47.072;15.132;2024-03-23T13:00:31;95407.00;;;21.51;35.31
20930;BME280;21895;47.072;15.132;2024-03-23T13:02:57;95408.00;;;21.72;35.72
20930;BME280;21895;47.072;15.132;2024-03-23T13:05:24;95417.00;;;21.78;34.64
20930;BME280;21895;47.072;15.132;2024-03-23T13:07:50;95411.00;;;21.41;34.59
20930;BME280;21895;47.072;15.132;2024-03-23T13:10:17;95402.00;;;21.39;35.88
20930;BME280;21895;47.072;15.132;2024-03-23T13:12:44;95400.00;;;21.81;35.76
20930;BME280;21895;47.072;15.132;2024-03-23T13:15:10;95400.00;;;22.36;34.54
20930;BME280;21895;47.072;15.132;2024-03-23T13:17:37;95398.00;;;21.84;34.35
20930;BME280;21895;47.072;15.132;2024-03-23T13:20:04;95390.00;;;21.75;34.79
20930;BME280;21895;47.072;15.132;2024-03-23T13:22:31;95388.00;;;21.78;34.89
20930;BME280;21895;47.072;15.132;2024-03-23T13:24:57;95384.00;;;21.96;34.48
20930;BME280;21895;47.072;15.132;2024-03-23T13:27:26;95375.00;;;21.69;34.75
20930;BME280;21895;47.072;15.132;2024-03-23T13:29:52;95382.00;;;21.44;34.45
20930;BME280;21895;47.072;15.132;2024-03-23T13:32:19;95375.00;;;20.80;35.45
20930;BME280;21895;47.072;15.132;2024-03-23T13:34:45;95362.00;;;20.73;36.02
20930;BME280;21895;47.072;15.132;2024-03-23T13:37:12;95371.00;;;21.13;36.35
20930;BME280;21895;47.072;15.132;2024-03-23T13:39:39;95369.00;;;21.44;35.78
20930;BME280;21895;47.072;15.132;2024-03-23T13:42:06;95367.00;;;21.34;35.30
20930;BME280;21895;47.072;15.132;2024-03-23T13:44:35;95364.00;;;21.27;35.15
20930;BME280;21895;47.072;15.132;2024-03-23T13:47:02;95372.00;;;21.32;36.04
20930;BME280;21895;47.072;15.132;2024-03-23T13:49:30;95382.00;;;21.45;35.44
20930;BME280;21895;47.072;15.132;2024-03-23T13:51:59;95359.00;;;21.39;34.67
20930;BME280;21895;47.072;15.132;2024-03-23T13:54:28;95368.00;;;21.15;35.62